Battle Lake, Minnesota
Current Conditions -  °F | °C
As of 3:34 PM on Saturday 20 Dec 2014 (Local Time) from KFFM Reporting Station
Haze Haze  
Wind Chill: 19°   Ceiling: 600
Heat Index: 30°   Visibility: 4mi
Dew Point: 28°   Wind: 15mph
Humidity: 93%   Direction: 170°S
Pressure: 30.03"   Gusts: NA
Location:  46.28°N, 95.71°W
Report Text: KFFM 202134Z AUTO 17013KT 4SM BR OVC006 M01/M02 A3003 RMK AO2
Loading
Personal Weather Stations






























Interactive Weather Map New forecast layout! Learn more

10-Day Weather Forecast

Advertisements
Track Severe Weather on mobile